OYAA/ADE METAR and TAF weather

Enter ICAO airport designator
Station Type Date Time Source
OYAA METAR 2023/01/31 08:00 UTC NOAA

OYAA 310800Z 09015KT 8000 FEW018 SCT025 27/18 Q1017 NOSIG


Station Type Date Time Source
OYAA Decoded METAR 2023/01/31 08:00 UTC NOAA

Aden, Yemen (OYAA) 12-40N 045-02E 3M
Jan 31, 2023 - 03:00 AM EST / 2023.01.31 0800 UTC
Wind: from the E (090 degrees) at 17 MPH (15 KT):0
Visibility: 4 mile(s):0
Sky conditions: partly cloudy
Temperature: 80 F (27 C)
Dew Point: 64 F (18 C)
Relative Humidity: 57%
Pressure (altimeter): 30.03 in. Hg (1017 hPa)
ob: OYAA 310800Z 09015KT 8000 FEW018 SCT025 27/18 Q1017 NOSIG
cycle: 8

Station Type Date Time Source
OYAA TAF 2023/02/05 18:04 UTC NOAA

TAF OYAA 051702Z 0518/0624 12015KT 8000 SCT020
TEMPO 0600/0606 RA BKN015

Example: see airport list